Time;durP1;ratioP1;P1;durP2;ratioP2;P2;SDS_P1;SDS_P2;PMS_P1;PMS_P2;Temp;Humidity;BMP_temperature;BMP_pressure;BME280_temperature;BME280_humidity;BME280_pressure;Samples;Min_cycle;Max_cycle;Signal;HPM_P1;HPM_P2
2023/12/04 00:01:50;;;;;;;0.00;0.00;;;5.20;72.70;;;;;;5050174;28;20729;-34
2023/12/04 00:04:19;;;;;;;0.00;0.00;;;5.20;72.80;;;;;;5048379;28;20207;-34
2023/12/04 00:06:47;;;;;;;0.00;0.00;;;5.20;72.70;;;;;;5049461;28;20248;-34
2023/12/04 00:09:15;;;;;;;0.00;0.00;;;5.20;72.70;;;;;;5049557;28;20307;-34
2023/12/04 00:11:42;;;;;;;0.00;0.00;;;5.20;72.70;;;;;;5048583;28;20236;-35
2023/12/04 00:14:09;;;;;;;0.00;0.00;;;5.30;72.80;;;;;;5048034;28;20200;-34
2023/12/04 00:16:36;;;;;;;0.00;0.00;;;5.30;72.70;;;;;;5047874;28;20221;-34
2023/12/04 00:19:04;;;;;;;0.00;0.00;;;5.30;72.70;;;;;;5049148;28;20586;-34
2023/12/04 00:21:36;;;;;;;0.00;0.00;;;5.30;72.60;;;;;;5054608;28;20211;-34
2023/12/04 00:24:07;;;;;;;0.00;0.00;;;5.30;72.60;;;;;;5069376;28;20805;-34
2023/12/04 00:26:36;;;;;;;0.00;0.00;;;5.30;72.50;;;;;;5068105;28;20206;-34
2023/12/04 00:29:06;;;;;;;0.00;0.00;;;5.30;72.50;;;;;;5067729;28;20195;-34
2023/12/04 00:31:38;;;;;;;0.00;0.00;;;5.30;72.60;;;;;;5067541;28;20247;-34
2023/12/04 00:34:05;;;;;;;0.00;0.00;;;5.20;72.50;;;;;;5067828;28;20207;-34
2023/12/04 00:36:35;;;;;;;0.00;0.00;;;5.20;72.50;;;;;;5067438;28;20219;-34
2023/12/04 00:39:05;;;;;;;0.00;0.00;;;5.20;72.50;;;;;;5067519;28;20273;-34
2023/12/04 00:41:34;;;;;;;0.00;0.00;;;5.20;72.40;;;;;;5066839;28;20377;-34
2023/12/04 00:44:04;;;;;;;0.00;0.00;;;5.20;72.40;;;;;;5067748;28;20207;-34
2023/12/04 00:46:36;;;;;;;0.00;0.00;;;5.20;72.40;;;;;;5069065;28;20231;-34
2023/12/04 00:49:07;;;;;;;0.00;0.00;;;5.20;72.40;;;;;;5067559;28;20218;-35
2023/12/04 00:51:38;;;;;;;0.00;0.00;;;5.20;72.30;;;;;;5050913;28;20242;-34
2023/12/04 00:54:08;;;;;;;0.00;0.00;;;5.20;72.30;;;;;;5067231;28;20222;-34
2023/12/04 00:56:40;;;;;;;0.00;0.00;;;5.20;72.30;;;;;;5067964;28;20237;-34
2023/12/04 00:59:11;;;;;;;0.00;0.00;;;5.20;72.30;;;;;;5068119;28;20204;-34
2023/12/04 01:01:39;;;;;;;0.00;0.00;;;5.20;72.40;;;;;;5068510;28;20203;-34
2023/12/04 01:04:08;;;;;;;0.00;0.00;;;5.20;73.00;;;;;;5068332;28;20208;-34
2023/12/04 01:06:36;;;;;;;0.00;0.00;;;5.20;72.30;;;;;;5068222;28;20231;-34
2023/12/04 01:09:03;;;;;;;0.00;0.00;;;5.20;72.30;;;;;;5068538;28;20243;-34
2023/12/04 01:11:32;;;;;;;0.00;0.00;;;5.20;72.30;;;;;;5067387;28;20238;-34
2023/12/04 01:14:00;;;;;;;0.00;0.00;;;5.20;72.20;;;;;;5066890;28;20728;-34
2023/12/04 01:16:29;;;;;;;0.00;0.00;;;5.20;72.40;;;;;;5068302;28;20195;-34
2023/12/04 01:18:57;;;;;;;0.00;0.00;;;5.20;72.30;;;;;;5068222;28;20191;-34
2023/12/04 01:21:24;;;;;;;0.00;0.00;;;5.20;72.30;;;;;;5063214;28;20188;-34
2023/12/04 01:23:54;;;;;;;0.00;0.00;;;5.20;72.30;;;;;;5048052;28;20216;-34
2023/12/04 01:26:21;;;;;;;0.00;0.00;;;5.20;72.30;;;;;;5045811;28;20203;-34
2023/12/04 01:28:51;;;;;;;0.00;0.00;;;5.20;72.30;;;;;;5046417;28;20253;-35
2023/12/04 01:31:18;;;;;;;0.00;0.00;;;5.20;72.20;;;;;;5047679;28;20226;-35
2023/12/04 01:33:45;;;;;;;0.00;0.00;;;5.20;72.20;;;;;;5046468;28;20543;-34
2023/12/04 01:36:13;;;;;;;0.00;0.00;;;5.20;72.20;;;;;;5046452;28;20204;-34
2023/12/04 01:38:40;;;;;;;0.00;0.00;;;5.20;72.20;;;;;;5048280;28;20192;-34
2023/12/04 01:41:07;;;;;;;0.00;0.00;;;5.20;72.30;;;;;;5047222;28;20670;-34
2023/12/04 01:43:39;;;;;;;0.00;0.00;;;5.20;72.20;;;;;;5048373;28;20254;-34
2023/12/04 01:46:09;;;;;;;0.00;0.00;;;5.20;72.20;;;;;;5047774;28;20208;-34
2023/12/04 01:48:37;;;;;;;0.00;0.00;;;5.20;72.10;;;;;;5047934;28;20208;-34
2023/12/04 01:51:11;;;;;;;0.00;0.00;;;5.20;72.10;;;;;;5046047;28;20852;-34
2023/12/04 01:53:42;;;;;;;0.00;0.00;;;5.20;72.10;;;;;;5047772;28;20201;-34
2023/12/04 01:56:10;;;;;;;0.00;0.00;;;5.20;72.20;;;;;;5045141;28;20207;-34
2023/12/04 01:58:38;;;;;;;0.00;0.00;;;5.20;72.10;;;;;;5051597;28;20211;-34
2023/12/04 02:01:07;;;;;;;0.00;0.00;;;5.20;72.10;;;;;;5067272;28;20204;-34
2023/12/04 02:03:35;;;;;;;0.00;0.00;;;5.20;72.00;;;;;;5060887;28;20257;-34
2023/12/04 02:06:07;;;;;;;0.00;0.00;;;5.20;72.10;;;;;;5047845;28;20243;-34
2023/12/04 02:08:35;;;;;;;0.00;0.00;;;5.20;72.10;;;;;;5058649;28;20287;-34
2023/12/04 02:11:05;;;;;;;0.00;0.00;;;5.20;72.10;;;;;;5048193;28;20227;-34
2023/12/04 02:13:33;;;;;;;0.00;0.00;;;5.20;72.10;;;;;;5065507;28;20202;-34
2023/12/04 02:16:07;;;;;;;0.00;0.00;;;5.20;72.10;;;;;;5064906;28;20211;-34
2023/12/04 02:18:39;;;;;;;0.00;0.00;;;5.20;72.10;;;;;;5052820;28;20215;-34
2023/12/04 02:21:09;;;;;;;0.00;0.00;;;5.20;72.10;;;;;;5051632;28;21011;-34
2023/12/04 02:23:36;;;;;;;0.00;0.00;;;5.20;72.00;;;;;;5054332;28;20215;-34
2023/12/04 02:26:12;;;;;;;0.00;0.00;;;5.20;72.10;;;;;;5051025;28;20207;-34
2023/12/04 02:28:40;;;;;;;0.00;0.00;;;5.20;72.10;;;;;;5058123;28;20225;-34
2023/12/04 02:31:09;;;;;;;0.00;0.00;;;5.20;72.10;;;;;;5071216;28;20226;-34
2023/12/04 02:33:37;;;;;;;0.00;0.00;;;5.20;72.10;;;;;;5070066;28;20196;-34
2023/12/04 02:36:06;;;;;;;0.00;0.00;;;5.20;72.00;;;;;;5082116;28;20214;-34
2023/12/04 02:38:34;;;;;;;0.00;0.00;;;5.20;72.10;;;;;;5090273;28;20801;-34
2023/12/04 02:41:06;;;;;;;0.00;0.00;;;5.20;72.00;;;;;;5089136;28;20225;-34
2023/12/04 02:43:38;;;;;;;0.00;0.00;;;5.20;71.90;;;;;;5090110;28;20206;-34
2023/12/04 02:46:05;;;;;;;0.00;0.00;;;5.20;72.00;;;;;;5091007;28;20240;-34
2023/12/04 02:48:32;;;;;;;0.00;0.00;;;5.20;72.00;;;;;;5091179;28;20199;-34
2023/12/04 02:51:05;;;;;;;0.00;0.00;;;5.20;72.00;;;;;;5090837;28;20219;-34
2023/12/04 02:53:35;;;;;;;0.00;0.00;;;5.20;71.90;;;;;;5091319;28;20229;-34
2023/12/04 02:56:03;;;;;;;0.00;0.00;;;5.20;71.90;;;;;;5088859;28;20230;-34
2023/12/04 02:58:30;;;;;;;0.00;0.00;;;5.20;71.80;;;;;;5090663;28;20694;-34
2023/12/04 03:00:57;;;;;;;0.00;0.00;;;5.20;71.80;;;;;;5090718;28;20333;-34
2023/12/04 03:03:29;;;;;;;0.00;0.00;;;5.20;71.90;;;;;;5071574;28;20196;-34
2023/12/04 03:05:57;;;;;;;0.00;0.00;;;5.20;71.90;;;;;;5069723;28;20235;-34
2023/12/04 03:08:29;;;;;;;0.00;0.00;;;5.20;71.90;;;;;;5069396;28;20215;-34
2023/12/04 03:11:02;;;;;;;0.00;0.00;;;5.20;71.80;;;;;;5066708;28;20219;-34
2023/12/04 03:13:32;;;;;;;0.00;0.00;;;5.20;71.80;;;;;;5069826;28;20200;-34
2023/12/04 03:16:02;;;;;;;0.00;0.00;;;5.20;71.80;;;;;;5067596;28;20231;-34
2023/12/04 03:18:31;;;;;;;0.00;0.00;;;5.20;71.80;;;;;;5067651;28;20310;-34
2023/12/04 03:21:01;;;;;;;0.00;0.00;;;5.20;71.90;;;;;;5068844;28;20196;-34
2023/12/04 03:23:31;;;;;;;0.00;0.00;;;5.20;71.90;;;;;;5068739;28;20665;-34
2023/12/04 03:25:58;;;;;;;0.00;0.00;;;5.20;71.90;;;;;;5066783;28;20217;-35
2023/12/04 03:28:25;;;;;;;0.00;0.00;;;5.20;71.90;;;;;;5069393;28;20218;-34
2023/12/04 03:30:57;;;;;;;0.00;0.00;;;5.20;71.80;;;;;;5069231;28;20310;-34
2023/12/04 03:33:27;;;;;;;0.00;0.00;;;5.20;71.90;;;;;;5067863;28;20187;-34
2023/12/04 03:35:54;;;;;;;0.00;0.00;;;5.20;71.80;;;;;;5067495;28;20188;-34
2023/12/04 03:38:21;;;;;;;0.00;0.00;;;5.20;71.80;;;;;;5069166;28;20599;-34
2023/12/04 03:40:53;;;;;;;0.00;0.00;;;5.20;72.60;;;;;;5066616;28;20203;-34
2023/12/04 03:43:22;;;;;;;0.00;0.00;;;5.20;71.70;;;;;;5050941;28;20211;-34
2023/12/04 03:45:50;;;;;;;0.00;0.00;;;5.20;71.80;;;;;;5068660;28;20206;-35
2023/12/04 03:48:20;;;;;;;0.00;0.00;;;5.20;71.80;;;;;;5068687;28;20303;-34
2023/12/04 03:50:47;;;;;;;0.00;0.00;;;5.20;71.80;;;;;;5068128;28;20204;-35
2023/12/04 03:53:19;;;;;;;0.00;0.00;;;5.20;71.80;;;;;;5068458;28;20203;-35
2023/12/04 03:55:49;;;;;;;0.00;0.00;;;5.30;71.80;;;;;;5067804;28;20197;-34
2023/12/04 03:58:16;;;;;;;0.00;0.00;;;5.30;71.80;;;;;;5068298;28;20298;-34
2023/12/04 04:00:48;;;;;;;0.00;0.00;;;5.30;71.80;;;;;;5066878;28;20764;-34
2023/12/04 04:03:15;;;;;;;0.00;0.00;;;5.30;71.90;;;;;;5051999;28;20720;-34
2023/12/04 04:05:47;;;;;;;0.00;0.00;;;5.30;71.80;;;;;;5006891;28;1152298;-34
2023/12/04 04:08:14;;;;;;;0.00;0.00;;;5.30;71.80;;;;;;5047823;28;20201;-34
2023/12/04 04:10:41;;;;;;;0.00;0.00;;;5.30;71.80;;;;;;5048458;28;20208;-34
2023/12/04 04:13:11;;;;;;;0.00;0.00;;;5.30;71.80;;;;;;5047788;28;20220;-34
2023/12/04 04:15:41;;;;;;;0.00;0.00;;;5.30;71.80;;;;;;5047339;28;20913;-34
2023/12/04 04:18:11;;;;;;;0.00;0.00;;;5.30;71.80;;;;;;5049457;28;20192;-35
2023/12/04 04:20:38;;;;;;;0.00;0.00;;;5.30;71.80;;;;;;5049132;28;20223;-34
2023/12/04 04:23:10;;;;;;;0.00;0.00;;;5.30;71.80;;;;;;5047732;28;20195;-34
2023/12/04 04:25:42;;;;;;;0.00;0.00;;;5.30;71.70;;;;;;5048449;28;20774;-34
2023/12/04 04:28:11;;;;;;;0.00;0.00;;;5.30;71.70;;;;;;5049236;28;20207;-34
2023/12/04 04:30:39;;;;;;;0.00;0.00;;;5.30;71.70;;;;;;5047529;28;20659;-34
2023/12/04 04:33:09;;;;;;;0.00;0.00;;;5.30;71.70;;;;;;5048976;28;20224;-34
2023/12/04 04:35:36;;;;;;;0.00;0.00;;;5.30;71.60;;;;;;5046815;28;20189;-34
2023/12/04 04:38:09;;;;;;;0.00;0.00;;;5.30;71.70;;;;;;5048747;28;20216;-34
2023/12/04 04:40:36;;;;;;;0.00;0.00;;;5.30;71.60;;;;;;5048142;28;20207;-34
2023/12/04 04:43:06;;;;;;;0.00;0.00;;;5.30;71.70;;;;;;5046965;28;20208;-34
2023/12/04 04:45:35;;;;;;;0.00;0.00;;;5.30;71.60;;;;;;5048331;28;20702;-34
2023/12/04 04:48:03;;;;;;;0.00;0.00;;;5.30;71.60;;;;;;5048915;28;20251;-34
2023/12/04 04:50:30;;;;;;;0.00;0.00;;;5.30;71.60;;;;;;5047174;28;20287;-34
2023/12/04 04:52:57;;;;;;;0.00;0.00;;;5.30;71.60;;;;;;5046567;28;20585;-34
2023/12/04 04:55:25;;;;;;;0.00;0.00;;;5.30;71.60;;;;;;5046531;28;20200;-35
2023/12/04 04:58:12;;;;;;;0.00;0.00;;;5.30;71.60;;;;;;5047105;28;20227;-34
2023/12/04 05:00:41;;;;;;;0.00;0.00;;;5.30;71.60;;;;;;5046347;28;20192;-34
2023/12/04 05:03:09;;;;;;;0.00;0.00;;;5.30;71.50;;;;;;5061948;28;20207;-34
2023/12/04 05:05:41;;;;;;;0.00;0.00;;;5.30;71.50;;;;;;5066073;28;20312;-34
2023/12/04 05:08:08;;;;;;;0.00;0.00;;;5.30;71.60;;;;;;5066632;28;20203;-34
2023/12/04 05:10:37;;;;;;;0.00;0.00;;;5.30;71.60;;;;;;5067767;28;20298;-34
2023/12/04 05:13:04;;;;;;;0.00;0.00;;;5.30;71.60;;;;;;5066485;28;20227;-35
2023/12/04 05:15:32;;;;;;;0.00;0.00;;;5.30;71.60;;;;;;5066468;28;20655;-35
2023/12/04 05:18:02;;;;;;;0.00;0.00;;;5.30;71.60;;;;;;5066721;28;20945;-34
2023/12/04 05:20:31;;;;;;;0.00;0.00;;;5.40;71.60;;;;;;5066910;28;20223;-34
2023/12/04 05:22:58;;;;;;;0.00;0.00;;;5.40;71.60;;;;;;5068291;28;20646;-34
2023/12/04 05:25:25;;;;;;;0.00;0.00;;;5.40;71.60;;;;;;5066015;28;20245;-35
2023/12/04 05:28:04;;;;;;;0.00;0.00;;;5.40;71.60;;;;;;5068052;28;20199;-35
2023/12/04 05:30:36;;;;;;;0.00;0.00;;;5.40;71.60;;;;;;5066402;28;20226;-34
2023/12/04 05:33:03;;;;;;;0.00;0.00;;;5.40;71.60;;;;;;5066366;28;20280;-34
2023/12/04 05:35:33;;;;;;;0.00;0.00;;;5.40;71.60;;;;;;5067886;28;21042;-34
2023/12/04 05:38:03;;;;;;;0.00;0.00;;;5.40;71.60;;;;;;5068057;28;20200;-34
2023/12/04 05:40:30;;;;;;;0.00;0.00;;;5.40;71.60;;;;;;5065819;28;20243;-34
2023/12/04 05:42:57;;;;;;;0.00;0.00;;;5.40;71.50;;;;;;5065667;28;20210;-35
2023/12/04 05:45:27;;;;;;;0.00;0.00;;;5.40;71.40;;;;;;5067064;28;20207;-34
2023/12/04 05:47:56;;;;;;;0.00;0.00;;;5.40;71.40;;;;;;5068698;28;20208;-40
2023/12/04 05:50:23;;;;;;;0.00;0.00;;;5.40;71.30;;;;;;5066097;28;20266;-34
2023/12/04 05:52:55;;;;;;;0.00;0.00;;;5.40;71.40;;;;;;5067384;28;20227;-34
2023/12/04 05:55:25;;;;;;;0.00;0.00;;;5.40;71.30;;;;;;5066993;28;20669;-34
2023/12/04 05:57:55;;;;;;;0.00;0.00;;;5.40;71.30;;;;;;5058282;28;20216;-34
2023/12/04 06:00:22;;;;;;;0.00;0.00;;;5.40;71.30;;;;;;5047308;28;20208;-35
2023/12/04 06:02:53;;;;;;;0.00;0.00;;;5.40;71.20;;;;;;5047298;28;20236;-37
2023/12/04 06:05:21;;;;;;;0.00;0.00;;;5.40;71.30;;;;;;5045866;28;20243;-34
2023/12/04 06:07:52;;;;;;;0.00;0.00;;;5.40;71.30;;;;;;5045839;28;20196;-35
2023/12/04 06:10:20;;;;;;;0.00;0.00;;;5.40;71.20;;;;;;5056102;28;20215;-35
2023/12/04 06:12:47;;;;;;;0.00;0.00;;;5.40;71.20;;;;;;5062111;28;20219;-34
2023/12/04 06:15:14;;;;;;;0.00;0.00;;;5.40;71.20;;;;;;5055934;28;20242;-34
2023/12/04 06:17:41;;;;;;;0.00;0.00;;;5.40;71.30;;;;;;5053478;28;20546;-35
2023/12/04 06:20:11;;;;;;;0.00;0.00;;;5.40;71.20;;;;;;5054496;28;20289;-34
2023/12/04 06:22:43;;;;;;;0.00;0.00;;;5.50;71.30;;;;;;5049627;28;20196;-34
2023/12/04 06:25:11;;;;;;;0.00;0.00;;;5.50;71.30;;;;;;5051168;28;20224;-34
2023/12/04 06:27:41;;;;;;;0.00;0.00;;;5.50;71.30;;;;;;5052538;28;20196;-34
2023/12/04 06:30:09;;;;;;;0.00;0.00;;;5.50;71.20;;;;;;5057797;28;20602;-34
2023/12/04 06:32:38;;;;;;;0.00;0.00;;;5.50;71.30;;;;;;5067139;28;20738;-34
2023/12/04 06:35:09;;;;;;;0.00;0.00;;;5.50;71.20;;;;;;5046276;28;20204;-34
2023/12/04 06:37:39;;;;;;;0.00;0.00;;;5.50;71.10;;;;;;5046189;28;20227;-34
2023/12/04 06:40:08;;;;;;;0.00;0.00;;;5.50;71.10;;;;;;5049648;28;20706;-34
2023/12/04 06:42:40;;;;;;;0.00;0.00;;;5.50;71.20;;;;;;5077273;28;20685;-34
2023/12/04 06:45:11;;;;;;;0.00;0.00;;;5.50;71.20;;;;;;5063912;28;20192;-34
2023/12/04 06:47:43;;;;;;;0.00;0.00;;;5.50;71.20;;;;;;5045472;28;20655;-34
2023/12/04 06:50:13;;;;;;;0.00;0.00;;;5.50;71.10;;;;;;5047330;28;20265;-34
2023/12/04 06:52:42;;;;;;;0.00;0.00;;;5.50;71.10;;;;;;5046392;28;20209;-34
2023/12/04 06:55:12;;;;;;;0.00;0.00;;;5.50;71.20;;;;;;5043278;28;20546;-34
2023/12/04 06:57:40;;;;;;;0.00;0.00;;;5.50;71.10;;;;;;5058196;28;20337;-34
2023/12/04 07:00:08;;;;;;;0.00;0.00;;;5.50;71.00;;;;;;5050742;28;20223;-36
2023/12/04 07:02:51;;;;;;;0.00;0.00;;;5.50;71.00;;;;;;5055329;28;20261;-34
2023/12/04 07:05:23;;;;;;;0.00;0.00;;;5.50;71.10;;;;;;5055321;28;20242;-34
2023/12/04 07:07:51;;;;;;;0.00;0.00;;;5.50;71.00;;;;;;5067809;28;20215;-34
2023/12/04 07:10:18;;;;;;;0.00;0.00;;;5.50;71.00;;;;;;5070054;28;20204;-34
2023/12/04 07:12:45;;;;;;;0.00;0.00;;;5.50;71.00;;;;;;5067104;28;20231;-34
2023/12/04 07:15:15;;;;;;;0.00;0.00;;;5.50;71.10;;;;;;5055773;28;20293;-35
2023/12/04 07:17:42;;;;;;;0.00;0.00;;;5.50;71.00;;;;;;5057016;28;20201;-34
2023/12/04 07:20:11;;;;;;;0.00;0.00;;;5.50;71.00;;;;;;5054638;28;20316;-34
2023/12/04 07:22:41;;;;;;;0.00;0.00;;;5.50;71.00;;;;;;5066777;28;20192;-34
2023/12/04 07:25:11;;;;;;;0.00;0.00;;;5.60;71.10;;;;;;5051492;28;20216;-34
2023/12/04 07:27:38;;;;;;;0.00;0.00;;;5.60;71.10;;;;;;5054913;28;20215;-34
2023/12/04 07:30:06;;;;;;;0.00;0.00;;;5.60;71.00;;;;;;5063071;28;20229;-34
2023/12/04 07:32:35;;;;;;;0.00;0.00;;;5.60;71.00;;;;;;5067829;28;20215;-34
2023/12/04 07:35:03;;;;;;;0.00;0.00;;;5.60;71.00;;;;;;5051700;28;20228;-34
2023/12/04 07:37:35;;;;;;;0.00;0.00;;;5.60;71.00;;;;;;5034413;28;20200;-34
2023/12/04 07:40:05;;;;;;;0.00;0.00;;;5.60;71.00;;;;;;5064578;28;20604;-34
2023/12/04 07:42:35;;;;;;;0.00;0.00;;;5.60;71.10;;;;;;5058506;28;20284;-34
2023/12/04 07:45:03;;;;;;;0.00;0.00;;;5.70;71.00;;;;;;5048857;28;20270;-34
2023/12/04 07:47:33;;;;;;;0.00;0.00;;;5.70;71.10;;;;;;5047827;28;20291;-34
2023/12/04 07:50:03;;;;;;;0.00;0.00;;;5.70;71.00;;;;;;5062372;28;20574;-34
2023/12/04 07:52:35;;;;;;;0.00;0.00;;;5.70;71.00;;;;;;5069284;28;20285;-34
2023/12/04 07:55:03;;;;;;;0.00;0.00;;;5.70;70.90;;;;;;5050983;28;20663;-34
2023/12/04 07:57:34;;;;;;;0.00;0.00;;;5.70;71.00;;;;;;5050418;28;20319;-34
2023/12/04 08:00:07;;;;;;;0.00;0.00;;;5.70;70.90;;;;;;5061544;28;20199;-34
2023/12/04 08:02:34;;;;;;;0.00;0.00;;;5.70;71.00;;;;;;5049618;28;20206;-35
2023/12/04 08:05:04;;;;;;;0.00;0.00;;;5.70;71.00;;;;;;5063735;28;20215;-34
2023/12/04 08:07:34;;;;;;;0.00;0.00;;;5.70;71.20;;;;;;5067016;28;20272;-34
2023/12/04 08:10:04;;;;;;;0.00;0.00;;;5.70;71.00;;;;;;5053909;28;20208;-36
2023/12/04 08:12:31;;;;;;;0.00;0.00;;;5.70;71.00;;;;;;5058561;28;20609;-34
2023/12/04 08:14:59;;;;;;;0.00;0.00;;;5.70;70.90;;;;;;5050012;28;20204;-35
2023/12/04 08:17:28;;;;;;;0.00;0.00;;;5.70;70.90;;;;;;5056402;28;20751;-34
2023/12/04 08:19:56;;;;;;;0.00;0.00;;;5.80;71.00;;;;;;5051520;28;20269;-35
2023/12/04 08:22:25;;;;;;;0.00;0.00;;;5.80;71.00;;;;;;5049391;28;20219;-35
2023/12/04 08:24:53;;;;;;;0.00;0.00;;;5.80;71.10;;;;;;5051589;28;20745;-35
2023/12/04 08:27:22;;;;;;;0.00;0.00;;;5.80;71.10;;;;;;5059627;28;20220;-35
2023/12/04 08:29:52;;;;;;;0.00;0.00;;;5.80;70.90;;;;;;5066723;28;20219;-35
2023/12/04 08:32:26;;;;;;;0.00;0.00;;;5.80;70.90;;;;;;5049094;28;20215;-35
2023/12/04 08:34:56;;;;;;;0.00;0.00;;;5.80;70.90;;;;;;5047375;28;20212;-35
2023/12/04 08:37:25;;;;;;;0.00;0.00;;;5.80;70.90;;;;;;5047580;28;20220;-35
2023/12/04 08:39:53;;;;;;;0.00;0.00;;;5.90;71.00;;;;;;5048006;28;20571;-35
2023/12/04 08:42:23;;;;;;;0.00;0.00;;;5.90;70.90;;;;;;5063982;28;20213;-35
2023/12/04 08:44:53;;;;;;;0.00;0.00;;;5.90;71.00;;;;;;5065859;28;20641;-34
2023/12/04 08:47:21;;;;;;;0.00;0.00;;;5.90;71.00;;;;;;5066975;28;20211;-35
2023/12/04 08:49:48;;;;;;;0.00;0.00;;;5.90;70.90;;;;;;5060862;28;20211;-35
2023/12/04 08:52:16;;;;;;;0.00;0.00;;;5.90;70.90;;;;;;5051155;28;20232;-35
2023/12/04 08:54:43;;;;;;;0.00;0.00;;;5.90;70.90;;;;;;5064495;28;20235;-35
2023/12/04 08:57:10;;;;;;;0.00;0.00;;;5.90;70.90;;;;;;5050097;28;20241;-34
2023/12/04 08:59:40;;;;;;;0.00;0.00;;;6.00;70.90;;;;;;5048733;28;20211;-35
2023/12/04 09:02:10;;;;;;;0.00;0.00;;;6.00;70.90;;;;;;5049610;28;20214;-35
2023/12/04 09:04:43;;;;;;;0.00;0.00;;;6.00;70.90;;;;;;5049931;28;20191;-35
2023/12/04 09:07:11;;;;;;;0.00;0.00;;;6.00;70.90;;;;;;5048406;28;20232;-35
2023/12/04 09:10:01;;;;;;;0.00;0.00;;;6.00;70.90;;;;;;5069090;28;20187;-35
2023/12/04 09:12:39;;;;;;;0.00;0.00;;;6.00;70.90;;;;;;5055340;28;20217;-35
2023/12/04 09:15:06;;;;;;;0.00;0.00;;;6.00;70.90;;;;;;5063260;28;20201;-35
2023/12/04 09:17:35;;;;;;;0.00;0.00;;;6.00;71.80;;;;;;5051037;28;20220;-35
2023/12/04 09:20:06;;;;;;;0.00;0.00;;;6.00;71.00;;;;;;5049745;28;20239;-34
2023/12/04 09:22:38;;;;;;;0.00;0.00;;;6.10;71.10;;;;;;5058695;28;20455;-35
2023/12/04 09:25:23;;;;;;;0.00;0.00;;;6.10;71.10;;;;;;5058469;28;20207;-35
2023/12/04 09:27:50;;;;;;;0.00;0.00;;;6.10;71.00;;;;;;5064212;28;20281;-35
2023/12/04 09:30:19;;;;;;;0.00;0.00;;;6.10;71.10;;;;;;5057062;28;20200;-35
2023/12/04 09:32:46;;;;;;;0.00;0.00;;;6.10;71.10;;;;;;5079005;28;20311;-35
2023/12/04 09:35:15;;;;;;;0.00;0.00;;;6.20;71.10;;;;;;5079779;28;20301;-35
2023/12/04 09:37:45;;;;;;;0.00;0.00;;;6.20;71.10;;;;;;5052791;28;20674;-35
2023/12/04 09:40:15;;;;;;;0.00;0.00;;;6.20;71.00;;;;;;5058483;28;20207;-35
2023/12/04 09:42:45;;;;;;;0.00;0.00;;;6.20;71.10;;;;;;5066343;28;20628;-35
2023/12/04 09:45:13;;;;;;;0.00;0.00;;;6.20;71.00;;;;;;5066124;28;20219;-35
2023/12/04 09:47:45;;;;;;;0.00;0.00;;;6.30;71.00;;;;;;5062165;28;20222;-35
2023/12/04 09:50:14;;;;;;;0.00;0.00;;;6.30;71.10;;;;;;5049890;28;20232;-35
2023/12/04 09:52:51;;;;;;;0.00;0.00;;;6.30;71.10;;;;;;5067195;28;20224;-35
2023/12/04 09:55:21;;;;;;;0.00;0.00;;;6.30;71.00;;;;;;5046639;28;20215;-34
2023/12/04 09:57:51;;;;;;;0.00;0.00;;;6.30;71.80;;;;;;5063897;28;20708;-35
2023/12/04 10:00:20;;;;;;;0.00;0.00;;;6.30;71.00;;;;;;5049174;28;20287;-35
2023/12/04 10:02:52;;;;;;;0.00;0.00;;;6.30;71.10;;;;;;5048110;28;20223;-35
2023/12/04 10:05:23;;;;;;;0.00;0.00;;;6.30;71.10;;;;;;5062887;28;20231;-35
2023/12/04 10:07:51;;;;;;;0.00;0.00;;;6.30;71.10;;;;;;5065752;28;20240;-35
2023/12/04 10:10:22;;;;;;;0.00;0.00;;;6.30;71.00;;;;;;5044693;28;20204;-35
2023/12/04 10:12:51;;;;;;;0.00;0.00;;;6.30;71.00;;;;;;5078315;28;20223;-35
2023/12/04 10:15:18;;;;;;;0.00;0.00;;;6.30;71.00;;;;;;5046573;28;20199;-35
2023/12/04 10:17:46;;;;;;;0.00;0.00;;;6.30;71.00;;;;;;5049397;28;20290;-35
2023/12/04 10:20:21;;;;;;;0.00;0.00;;;6.30;71.00;;;;;;5047516;28;20246;-34
2023/12/04 10:22:55;;;;;;;0.00;0.00;;;6.30;70.90;;;;;;5051139;28;20207;-35
2023/12/04 10:25:29;;;;;;;0.00;0.00;;;6.30;70.90;;;;;;5070447;28;20208;-35
2023/12/04 10:28:15;;;;;;;0.00;0.00;;;6.30;71.00;;;;;;5055018;28;20284;-28
2023/12/04 10:30:44;;;;;;;0.00;0.00;;;6.30;71.00;;;;;;5059825;28;20529;-28
2023/12/04 10:33:14;;;;;;;0.00;0.00;;;6.30;71.00;;;;;;5070130;28;20216;-28
2023/12/04 10:35:42;;;;;;;0.00;0.00;;;6.30;71.10;;;;;;5058888;28;20603;-28
2023/12/04 10:38:14;;;;;;;0.00;0.00;;;6.40;71.30;;;;;;5051434;28;20665;-28
2023/12/04 10:40:41;;;;;;;0.00;0.00;;;6.40;71.20;;;;;;5050601;28;20205;-28
2023/12/04 10:43:22;;;;;;;0.00;0.00;;;6.40;71.20;;;;;;5051304;28;20228;-28
2023/12/04 10:45:54;;;;;;;0.00;0.00;;;6.40;71.20;;;;;;5056495;28;20200;-28
2023/12/04 10:48:21;;;;;;;0.00;0.00;;;6.40;71.20;;;;;;5049865;28;20892;-28
2023/12/04 10:50:52;;;;;;;0.00;0.00;;;6.40;71.20;;;;;;5058045;28;20275;-28
2023/12/04 10:53:22;;;;;;;0.00;0.00;;;6.30;71.10;;;;;;5065852;28;20234;-28
2023/12/04 10:55:53;;;;;;;0.00;0.00;;;6.40;71.20;;;;;;5056957;28;20196;-28
2023/12/04 10:58:26;;;;;;;0.00;0.00;;;6.40;71.20;;;;;;5070731;28;20218;-28
2023/12/04 11:01:00;;;;;;;0.00;0.00;;;6.40;71.20;;;;;;5067347;28;20203;-28
2023/12/04 11:03:40;;;;;;;0.00;0.00;;;6.40;71.30;;;;;;5051043;28;20299;-28
2023/12/04 11:06:12;;;;;;;0.00;0.00;;;6.40;71.20;;;;;;5057449;28;20238;-28
2023/12/04 11:08:44;;;;;;;0.00;0.00;;;6.40;71.20;;;;;;5070036;28;20257;-28
2023/12/04 11:11:35;;;;;;;0.00;0.00;;;6.40;71.30;;;;;;5068243;28;20256;-28
2023/12/04 11:14:08;;;;;;;0.00;0.00;;;6.40;72.00;;;;;;5070825;28;20216;-28
2023/12/04 11:16:54;;;;;;;0.00;0.00;;;6.40;71.20;;;;;;5053600;28;20191;-28
2023/12/04 11:19:29;;;;;;;0.00;0.00;;;6.40;71.20;;;;;;5061675;28;20206;-28
2023/12/04 11:21:59;;;;;;;0.00;0.00;;;6.40;71.10;;;;;;5066029;28;20212;-28
2023/12/04 11:24:31;;;;;;;0.00;0.00;;;6.40;71.20;;;;;;5065590;28;20204;-28
2023/12/04 11:27:00;;;;;;;0.00;0.00;;;6.40;71.10;;;;;;5061501;28;20837;-28
2023/12/04 11:29:33;;;;;;;0.00;0.00;;;6.40;71.10;;;;;;5068296;28;20195;-28
2023/12/04 11:32:00;;;;;;;0.00;0.00;;;6.40;71.20;;;;;;5056382;28;20216;-28
2023/12/04 11:34:27;;;;;;;0.00;0.00;;;6.40;71.20;;;;;;5051393;28;20680;-28
2023/12/04 11:36:56;;;;;;;0.00;0.00;;;6.40;71.20;;;;;;5064588;28;20294;-28
2023/12/04 11:39:26;;;;;;;0.00;0.00;;;6.40;71.30;;;;;;5059390;28;20654;-27
2023/12/04 11:41:56;;;;;;;0.00;0.00;;;6.40;71.20;;;;;;5054879;28;20224;-28
2023/12/04 11:44:26;;;;;;;0.00;0.00;;;6.30;71.20;;;;;;5072145;28;20624;-28
2023/12/04 11:47:10;;;;;;;0.00;0.00;;;6.30;71.30;;;;;;5066118;28;20216;-28
2023/12/04 11:49:37;;;;;;;0.00;0.00;;;6.40;71.30;;;;;;5048519;28;20223;-28
2023/12/04 11:52:05;;;;;;;0.00;0.00;;;6.30;72.00;;;;;;5062181;28;20962;-28
2023/12/04 11:55:00;;;;;;;0.00;0.00;;;6.40;71.30;;;;;;5050819;28;20830;-28
2023/12/04 11:57:34;;;;;;;0.00;0.00;;;6.40;71.40;;;;;;5051915;28;20298;-28
2023/12/04 12:00:10;;;;;;;0.00;0.00;;;6.40;71.30;;;;;;5050703;28;20207;-28
2023/12/04 12:02:48;;;;;;;0.00;0.00;;;6.40;71.40;;;;;;5052312;28;20426;-28
2023/12/04 12:05:40;;;;;;;0.00;0.00;;;6.40;71.40;;;;;;5063526;28;20231;-28
2023/12/04 12:08:11;;;;;;;0.00;0.00;;;6.40;71.40;;;;;;5065215;28;20214;-28
2023/12/04 12:10:40;;;;;;;0.00;0.00;;;6.40;71.50;;;;;;5067710;28;20196;-28
2023/12/04 12:13:10;;;;;;;0.00;0.00;;;6.40;71.50;;;;;;5054513;28;20223;-28
2023/12/04 12:15:39;;;;;;;0.00;0.00;;;6.40;71.50;;;;;;5066345;28;20658;-28
2023/12/04 12:18:06;;;;;;;0.00;0.00;;;6.50;71.50;;;;;;5059477;28;20193;-28
2023/12/04 12:20:39;;;;;;;0.00;0.00;;;6.50;71.50;;;;;;5049380;28;20196;-28
2023/12/04 12:23:09;;;;;;;0.00;0.00;;;6.50;71.50;;;;;;5061689;28;20211;-28
2023/12/04 12:25:36;;;;;;;0.00;0.00;;;6.50;71.50;;;;;;5058103;28;20222;-28
2023/12/04 12:28:06;;;;;;;0.00;0.00;;;6.50;71.50;;;;;;5052297;28;20220;-28
2023/12/04 12:30:34;;;;;;;0.00;0.00;;;6.50;71.50;;;;;;5063896;28;20200;-27
2023/12/04 12:33:01;;;;;;;0.00;0.00;;;6.50;71.50;;;;;;5071084;28;20219;-28
2023/12/04 12:35:31;;;;;;;0.00;0.00;;;6.50;71.50;;;;;;5063679;28;20301;-28
2023/12/04 12:37:58;;;;;;;0.00;0.00;;;6.60;71.50;;;;;;5056727;28;20242;-28
2023/12/04 12:40:31;;;;;;;0.00;0.00;;;6.60;71.60;;;;;;5066420;28;20287;-28
2023/12/04 12:43:09;;;;;;;0.00;0.00;;;6.60;71.60;;;;;;5058829;28;20601;-28
2023/12/04 12:45:44;;;;;;;0.00;0.00;;;6.60;71.60;;;;;;5049881;28;20199;-28
2023/12/04 12:48:15;;;;;;;0.00;0.00;;;6.60;71.60;;;;;;5061476;28;20191;-27
2023/12/04 12:50:45;;;;;;;0.00;0.00;;;6.60;71.60;;;;;;5057393;28;20211;-28
2023/12/04 12:53:15;;;;;;;0.00;0.00;;;6.60;71.60;;;;;;5057605;28;20220;-28
2023/12/04 12:55:45;;;;;;;0.00;0.00;;;6.70;71.70;;;;;;5052384;28;20206;-28
2023/12/04 12:58:20;;;;;;;0.00;0.00;;;6.70;71.70;;;;;;5054966;28;20215;-28
2023/12/04 13:00:48;;;;;;;0.00;0.00;;;6.70;71.70;;;;;;5052552;28;20206;-28
2023/12/04 13:03:19;;;;;;;0.00;0.00;;;6.70;71.70;;;;;;5052850;28;20199;-28
2023/12/04 13:05:47;;;;;;;0.00;0.00;;;6.70;71.80;;;;;;5063725;28;20812;-28
2023/12/04 13:08:17;;;;;;;0.00;0.00;;;6.80;71.90;;;;;;5057329;28;20276;-27
2023/12/04 13:10:44;;;;;;;0.00;0.00;;;6.80;71.80;;;;;;5046208;28;20223;-28
2023/12/04 13:13:15;;;;;;;0.00;0.00;;;6.80;71.80;;;;;;5060036;28;20204;-27